sensor_id;sensor_type;location;lat;lon;timestamp;pressure;altitude;pressure_sealevel;temperature;humidity
43153;BME280;28756;49.064;9.290;2023-03-30T00:02:21;98726.50;;;13.27;100.00
43153;BME280;28756;49.064;9.290;2023-03-30T00:04:49;98716.44;;;12.97;100.00
43153;BME280;28756;49.064;9.290;2023-03-30T00:07:15;98717.63;;;12.80;100.00
43153;BME280;28756;49.064;9.290;2023-03-30T00:09:41;98716.59;;;12.57;100.00
43153;BME280;28756;49.064;9.290;2023-03-30T00:12:12;98707.13;;;12.43;100.00
43153;BME280;28756;49.064;9.290;2023-03-30T00:14:40;98701.81;;;12.31;100.00
43153;BME280;28756;49.064;9.290;2023-03-30T00:17:08;98697.63;;;12.29;100.00
43153;BME280;28756;49.064;9.290;2023-03-30T00:19:36;98692.63;;;12.26;100.00
43153;BME280;28756;49.064;9.290;2023-03-30T00:22:07;98698.88;;;12.23;100.00
43153;BME280;28756;49.064;9.290;2023-03-30T00:24:35;98701.38;;;12.25;100.00
43153;BME280;28756;49.064;9.290;2023-03-30T00:27:02;98705.88;;;12.23;100.00
43153;BME280;28756;49.064;9.290;2023-03-30T00:29:28;98705.53;;;12.27;100.00
43153;BME280;28756;49.064;9.290;2023-03-30T00:31:54;98691.25;;;12.20;100.00
43153;BME280;28756;49.064;9.290;2023-03-30T00:34:20;98691.88;;;12.24;100.00
43153;BME280;28756;49.064;9.290;2023-03-30T00:36:46;98686.91;;;12.21;100.00
43153;BME280;28756;49.064;9.290;2023-03-30T00:39:14;98678.13;;;12.22;100.00
43153;BME280;28756;49.064;9.290;2023-03-30T00:41:44;98660.28;;;12.15;100.00
43153;BME280;28756;49.064;9.290;2023-03-30T00:47:38;98640.59;;;12.24;100.00
43153;BME280;28756;49.064;9.290;2023-03-30T00:50:06;98648.00;;;12.30;100.00
43153;BME280;28756;49.064;9.290;2023-03-30T00:52:33;98640.28;;;12.42;100.00
43153;BME280;28756;49.064;9.290;2023-03-30T00:55:03;98631.06;;;12.49;100.00
43153;BME280;28756;49.064;9.290;2023-03-30T00:57:30;98610.91;;;12.51;100.00
43153;BME280;28756;49.064;9.290;2023-03-30T00:59:56;98608.19;;;12.66;100.00
43153;BME280;28756;49.064;9.290;2023-03-30T01:02:22;98606.78;;;12.86;100.00
43153;BME280;28756;49.064;9.290;2023-03-30T01:04:52;98610.31;;;12.85;100.00
43153;BME280;28756;49.064;9.290;2023-03-30T01:07:20;98612.09;;;12.84;100.00
43153;BME280;28756;49.064;9.290;2023-03-30T01:09:50;98594.34;;;12.89;100.00
43153;BME280;28756;49.064;9.290;2023-03-30T01:12:19;98595.38;;;12.87;100.00
43153;BME280;28756;49.064;9.290;2023-03-30T01:14:45;98599.72;;;12.99;100.00
43153;BME280;28756;49.064;9.290;2023-03-30T01:17:53;98593.38;;;12.90;100.00
43153;BME280;28756;49.064;9.290;2023-03-30T01:23:20;98592.06;;;12.85;100.00
43153;BME280;28756;49.064;9.290;2023-03-30T01:28:58;98588.75;;;12.70;100.00
43153;BME280;28756;49.064;9.290;2023-03-30T01:31:48;98588.16;;;12.66;100.00
43153;BME280;28756;49.064;9.290;2023-03-30T01:43:18;98606.91;;;12.34;100.00
43153;BME280;28756;49.064;9.290;2023-03-30T01:45:56;98597.81;;;12.40;100.00
43153;BME280;28756;49.064;9.290;2023-03-30T01:48:46;98610.88;;;12.27;100.00
43153;BME280;28756;49.064;9.290;2023-03-30T01:51:36;98605.47;;;12.67;100.00
43153;BME280;28756;49.064;9.290;2023-03-30T01:56:51;98600.69;;;12.61;100.00
43153;BME280;28756;49.064;9.290;2023-03-30T01:59:28;98602.03;;;12.67;100.00
43153;BME280;28756;49.064;9.290;2023-03-30T02:01:58;98603.16;;;12.75;100.00
43153;BME280;28756;49.064;9.290;2023-03-30T02:04:30;98625.75;;;12.88;100.00
43153;BME280;28756;49.064;9.290;2023-03-30T02:07:02;98626.97;;;12.95;100.00
43153;BME280;28756;49.064;9.290;2023-03-30T02:09:31;98629.50;;;12.97;100.00
43153;BME280;28756;49.064;9.290;2023-03-30T02:11:59;98626.88;;;12.97;100.00
43153;BME280;28756;49.064;9.290;2023-03-30T02:14:30;98615.41;;;13.10;100.00
43153;BME280;28756;49.064;9.290;2023-03-30T02:17:07;98618.41;;;13.06;100.00
43153;BME280;28756;49.064;9.290;2023-03-30T02:19:36;98613.34;;;13.16;100.00
43153;BME280;28756;49.064;9.290;2023-03-30T02:22:03;98608.38;;;13.24;100.00
43153;BME280;28756;49.064;9.290;2023-03-30T02:24:31;98607.53;;;13.23;100.00
43153;BME280;28756;49.064;9.290;2023-03-30T02:26:59;98614.56;;;13.34;100.00
43153;BME280;28756;49.064;9.290;2023-03-30T02:29:27;98614.41;;;13.24;100.00
43153;BME280;28756;49.064;9.290;2023-03-30T02:31:56;98607.38;;;13.14;100.00
43153;BME280;28756;49.064;9.290;2023-03-30T02:37:58;98620.16;;;13.05;100.00
43153;BME280;28756;49.064;9.290;2023-03-30T02:52:50;98624.16;;;12.98;100.00
43153;BME280;28756;49.064;9.290;2023-03-30T02:55:33;98612.31;;;13.05;100.00
43153;BME280;28756;49.064;9.290;2023-03-30T02:58:04;98613.06;;;13.07;100.00
43153;BME280;28756;49.064;9.290;2023-03-30T03:00:52;98607.50;;;13.12;100.00
43153;BME280;28756;49.064;9.290;2023-03-30T03:03:24;98605.75;;;13.00;100.00
43153;BME280;28756;49.064;9.290;2023-03-30T03:05:53;98606.22;;;12.93;100.00
43153;BME280;28756;49.064;9.290;2023-03-30T03:08:23;98610.31;;;12.85;100.00
43153;BME280;28756;49.064;9.290;2023-03-30T03:10:50;98605.88;;;12.74;100.00
43153;BME280;28756;49.064;9.290;2023-03-30T03:13:16;98613.91;;;12.71;100.00
43153;BME280;28756;49.064;9.290;2023-03-30T03:15:45;98604.00;;;12.63;100.00
43153;BME280;28756;49.064;9.290;2023-03-30T03:18:11;98607.59;;;12.62;100.00
43153;BME280;28756;49.064;9.290;2023-03-30T03:20:38;98579.72;;;12.62;100.00
43153;BME280;28756;49.064;9.290;2023-03-30T03:23:04;98549.47;;;12.60;100.00
43153;BME280;28756;49.064;9.290;2023-03-30T03:25:30;98579.00;;;12.47;100.00
43153;BME280;28756;49.064;9.290;2023-03-30T03:27:56;98573.00;;;12.34;100.00
43153;BME280;28756;49.064;9.290;2023-03-30T03:30:22;98592.63;;;12.27;100.00
43153;BME280;28756;49.064;9.290;2023-03-30T03:32:49;98601.19;;;12.29;100.00
43153;BME280;28756;49.064;9.290;2023-03-30T03:35:16;98596.56;;;12.32;100.00
43153;BME280;28756;49.064;9.290;2023-03-30T03:37:41;98613.28;;;12.30;100.00
43153;BME280;28756;49.064;9.290;2023-03-30T03:40:07;98612.22;;;12.32;100.00
43153;BME280;28756;49.064;9.290;2023-03-30T03:42:36;98601.78;;;12.32;100.00
43153;BME280;28756;49.064;9.290;2023-03-30T03:45:02;98598.34;;;12.32;100.00
43153;BME280;28756;49.064;9.290;2023-03-30T03:47:28;98597.00;;;12.26;100.00
43153;BME280;28756;49.064;9.290;2023-03-30T03:49:53;98602.22;;;12.26;100.00
43153;BME280;28756;49.064;9.290;2023-03-30T03:52:19;98602.00;;;12.16;100.00
43153;BME280;28756;49.064;9.290;2023-03-30T03:54:45;98611.81;;;12.13;100.00
43153;BME280;28756;49.064;9.290;2023-03-30T03:57:10;98627.06;;;12.06;100.00
43153;BME280;28756;49.064;9.290;2023-03-30T03:59:36;98627.66;;;11.97;100.00
43153;BME280;28756;49.064;9.290;2023-03-30T04:02:02;98621.81;;;11.93;100.00
43153;BME280;28756;49.064;9.290;2023-03-30T04:04:30;98614.19;;;11.90;100.00
43153;BME280;28756;49.064;9.290;2023-03-30T04:06:56;98594.69;;;11.83;100.00
43153;BME280;28756;49.064;9.290;2023-03-30T04:09:22;98575.00;;;11.79;100.00
43153;BME280;28756;49.064;9.290;2023-03-30T04:11:48;98581.34;;;11.75;100.00
43153;BME280;28756;49.064;9.290;2023-03-30T04:14:14;98571.78;;;11.75;100.00
43153;BME280;28756;49.064;9.290;2023-03-30T04:16:40;98561.13;;;11.65;100.00
43153;BME280;28756;49.064;9.290;2023-03-30T04:19:05;98565.00;;;11.60;100.00
43153;BME280;28756;49.064;9.290;2023-03-30T04:21:33;98574.88;;;11.54;100.00
43153;BME280;28756;49.064;9.290;2023-03-30T04:24:00;98572.69;;;11.48;100.00
43153;BME280;28756;49.064;9.290;2023-03-30T04:26:26;98575.59;;;11.44;100.00
43153;BME280;28756;49.064;9.290;2023-03-30T04:28:53;98567.34;;;11.37;100.00
43153;BME280;28756;49.064;9.290;2023-03-30T04:31:22;98568.31;;;11.36;100.00
43153;BME280;28756;49.064;9.290;2023-03-30T04:33:48;98583.81;;;11.37;100.00
43153;BME280;28756;49.064;9.290;2023-03-30T04:36:19;98567.56;;;11.34;100.00
43153;BME280;28756;49.064;9.290;2023-03-30T04:38:46;98566.81;;;11.32;100.00
43153;BME280;28756;49.064;9.290;2023-03-30T04:41:30;98546.53;;;11.24;100.00
43153;BME280;28756;49.064;9.290;2023-03-30T04:44:06;98530.47;;;11.17;100.00
43153;BME280;28756;49.064;9.290;2023-03-30T04:46:32;98522.66;;;11.17;100.00
43153;BME280;28756;49.064;9.290;2023-03-30T04:48:58;98520.06;;;11.17;100.00
43153;BME280;28756;49.064;9.290;2023-03-30T04:51:23;98536.13;;;11.24;100.00
43153;BME280;28756;49.064;9.290;2023-03-30T04:53:49;98547.22;;;11.26;100.00
43153;BME280;28756;49.064;9.290;2023-03-30T04:56:15;98547.34;;;11.25;100.00
43153;BME280;28756;49.064;9.290;2023-03-30T04:58:41;98532.47;;;11.27;100.00
43153;BME280;28756;49.064;9.290;2023-03-30T05:01:07;98517.97;;;11.22;100.00
43153;BME280;28756;49.064;9.290;2023-03-30T05:03:33;98514.66;;;11.20;100.00
43153;BME280;28756;49.064;9.290;2023-03-30T05:06:00;98510.16;;;11.22;100.00
43153;BME280;28756;49.064;9.290;2023-03-30T05:08:26;98485.94;;;11.22;100.00
43153;BME280;28756;49.064;9.290;2023-03-30T05:10:52;98488.72;;;11.19;100.00
43153;BME280;28756;49.064;9.290;2023-03-30T05:13:18;98517.47;;;11.17;100.00
43153;BME280;28756;49.064;9.290;2023-03-30T05:15:53;98512.06;;;11.20;100.00
43153;BME280;28756;49.064;9.290;2023-03-30T05:18:19;98509.34;;;11.22;100.00
43153;BME280;28756;49.064;9.290;2023-03-30T05:20:45;98503.91;;;11.25;100.00
43153;BME280;28756;49.064;9.290;2023-03-30T05:23:10;98499.75;;;11.22;100.00
43153;BME280;28756;49.064;9.290;2023-03-30T05:25:36;98496.84;;;11.27;100.00
43153;BME280;28756;49.064;9.290;2023-03-30T05:28:02;98497.59;;;11.29;100.00
43153;BME280;28756;49.064;9.290;2023-03-30T05:30:27;98509.88;;;11.27;100.00
43153;BME280;28756;49.064;9.290;2023-03-30T05:32:54;98492.19;;;11.32;100.00
43153;BME280;28756;49.064;9.290;2023-03-30T05:35:20;98484.47;;;11.31;100.00
43153;BME280;28756;49.064;9.290;2023-03-30T05:37:48;98490.72;;;11.28;100.00
43153;BME280;28756;49.064;9.290;2023-03-30T05:40:14;98490.81;;;11.27;100.00
43153;BME280;28756;49.064;9.290;2023-03-30T05:42:40;98498.81;;;11.24;100.00
43153;BME280;28756;49.064;9.290;2023-03-30T05:45:06;98485.81;;;11.24;100.00
43153;BME280;28756;49.064;9.290;2023-03-30T05:47:32;98483.09;;;11.25;100.00
43153;BME280;28756;49.064;9.290;2023-03-30T05:50:00;98485.00;;;11.23;100.00
43153;BME280;28756;49.064;9.290;2023-03-30T05:52:37;98478.41;;;11.17;100.00
43153;BME280;28756;49.064;9.290;2023-03-30T05:55:03;98469.06;;;11.15;100.00
43153;BME280;28756;49.064;9.290;2023-03-30T05:57:29;98468.31;;;11.13;100.00
43153;BME280;28756;49.064;9.290;2023-03-30T05:59:55;98468.63;;;11.08;100.00
43153;BME280;28756;49.064;9.290;2023-03-30T06:02:20;98476.53;;;11.06;100.00
43153;BME280;28756;49.064;9.290;2023-03-30T06:04:46;98508.88;;;11.02;100.00
43153;BME280;28756;49.064;9.290;2023-03-30T06:07:12;98556.47;;;11.04;100.00
43153;BME280;28756;49.064;9.290;2023-03-30T06:09:38;98585.66;;;10.95;100.00
43153;BME280;28756;49.064;9.290;2023-03-30T06:12:04;98605.59;;;10.82;100.00
43153;BME280;28756;49.064;9.290;2023-03-30T06:14:32;98625.31;;;10.71;100.00
43153;BME280;28756;49.064;9.290;2023-03-30T06:16:58;98648.69;;;10.71;100.00
43153;BME280;28756;49.064;9.290;2023-03-30T06:19:24;98657.53;;;10.69;100.00
43153;BME280;28756;49.064;9.290;2023-03-30T06:21:49;98645.81;;;10.76;100.00
43153;BME280;28756;49.064;9.290;2023-03-30T06:24:15;98645.44;;;10.82;100.00
43153;BME280;28756;49.064;9.290;2023-03-30T06:26:41;98647.22;;;10.82;100.00
43153;BME280;28756;49.064;9.290;2023-03-30T06:29:07;98654.16;;;10.81;100.00
43153;BME280;28756;49.064;9.290;2023-03-30T06:31:32;98669.75;;;10.81;100.00
43153;BME280;28756;49.064;9.290;2023-03-30T06:33:58;98669.75;;;10.81;100.00
43153;BME280;28756;49.064;9.290;2023-03-30T06:36:24;98660.22;;;10.82;100.00
43153;BME280;28756;49.064;9.290;2023-03-30T06:38:50;98660.22;;;10.82;100.00
43153;BME280;28756;49.064;9.290;2023-03-30T06:41:16;98674.97;;;10.81;100.00
43153;BME280;28756;49.064;9.290;2023-03-30T06:43:42;98675.72;;;10.83;100.00
43153;BME280;28756;49.064;9.290;2023-03-30T06:46:08;98677.56;;;10.81;100.00
43153;BME280;28756;49.064;9.290;2023-03-30T06:48:34;98693.09;;;10.83;100.00
43153;BME280;28756;49.064;9.290;2023-03-30T06:50:59;98690.56;;;10.81;100.00
43153;BME280;28756;49.064;9.290;2023-03-30T06:53:28;98693.09;;;10.83;100.00
43153;BME280;28756;49.064;9.290;2023-03-30T06:55:57;98707.69;;;10.85;100.00
43153;BME280;28756;49.064;9.290;2023-03-30T06:58:26;98715.59;;;10.84;100.00
43153;BME280;28756;49.064;9.290;2023-03-30T07:00:55;98725.06;;;10.85;100.00
43153;BME280;28756;49.064;9.290;2023-03-30T07:03:21;98716.31;;;10.86;100.00
43153;BME280;28756;49.064;9.290;2023-03-30T07:05:49;98715.66;;;10.82;100.00
43153;BME280;28756;49.064;9.290;2023-03-30T07:08:15;98740.19;;;10.78;100.00
43153;BME280;28756;49.064;9.290;2023-03-30T07:10:41;98763.78;;;10.75;100.00
43153;BME280;28756;49.064;9.290;2023-03-30T07:13:08;98773.38;;;10.74;100.00
43153;BME280;28756;49.064;9.290;2023-03-30T07:15:34;98780.59;;;10.69;100.00
43153;BME280;28756;49.064;9.290;2023-03-30T07:18:00;98768.53;;;10.68;100.00
43153;BME280;28756;49.064;9.290;2023-03-30T07:20:26;98756.25;;;10.70;100.00
43153;BME280;28756;49.064;9.290;2023-03-30T07:22:52;98762.22;;;10.72;100.00
43153;BME280;28756;49.064;9.290;2023-03-30T07:25:18;98744.00;;;10.72;100.00
43153;BME280;28756;49.064;9.290;2023-03-30T07:27:43;98752.56;;;10.74;100.00
43153;BME280;28756;49.064;9.290;2023-03-30T07:30:10;98774.38;;;10.72;100.00
43153;BME280;28756;49.064;9.290;2023-03-30T07:32:36;98776.22;;;10.70;100.00
43153;BME280;28756;49.064;9.290;2023-03-30T07:35:03;98786.63;;;10.70;100.00
43153;BME280;28756;49.064;9.290;2023-03-30T07:37:29;98797.03;;;10.70;100.00
43153;BME280;28756;49.064;9.290;2023-03-30T07:39:55;98790.25;;;10.67;100.00
43153;BME280;28756;49.064;9.290;2023-03-30T07:42:21;98772.06;;;10.67;100.00
43153;BME280;28756;49.064;9.290;2023-03-30T07:44:47;98774.84;;;10.64;100.00
43153;BME280;28756;49.064;9.290;2023-03-30T07:47:13;98778.47;;;10.62;100.00
43153;BME280;28756;49.064;9.290;2023-03-30T07:49:39;98767.25;;;10.61;100.00
43153;BME280;28756;49.064;9.290;2023-03-30T07:52:06;98755.16;;;10.60;100.00
43153;BME280;28756;49.064;9.290;2023-03-30T07:54:32;98760.09;;;10.65;100.00
43153;BME280;28756;49.064;9.290;2023-03-30T07:56:58;98764.81;;;10.72;100.00
43153;BME280;28756;49.064;9.290;2023-03-30T07:59:24;98757.56;;;10.78;100.00
43153;BME280;28756;49.064;9.290;2023-03-30T08:01:51;98765.84;;;10.84;100.00
43153;BME280;28756;49.064;9.290;2023-03-30T08:04:20;98776.50;;;10.80;100.00
43153;BME280;28756;49.064;9.290;2023-03-30T08:06:46;98781.16;;;10.74;100.00
43153;BME280;28756;49.064;9.290;2023-03-30T08:09:13;98787.47;;;10.70;100.00
43153;BME280;28756;49.064;9.290;2023-03-30T08:11:39;98809.28;;;10.68;100.00
43153;BME280;28756;49.064;9.290;2023-03-30T08:14:06;98822.28;;;10.68;100.00
43153;BME280;28756;49.064;9.290;2023-03-30T08:16:32;98821.53;;;10.66;100.00
43153;BME280;28756;49.064;9.290;2023-03-30T08:18:57;98834.00;;;10.75;100.00
43153;BME280;28756;49.064;9.290;2023-03-30T08:21:24;98832.91;;;10.79;100.00
43153;BME280;28756;49.064;9.290;2023-03-30T08:23:54;98821.84;;;10.90;100.00
43153;BME280;28756;49.064;9.290;2023-03-30T08:26:27;98829.84;;;10.87;100.00
43153;BME280;28756;49.064;9.290;2023-03-30T08:28:53;98826.41;;;10.86;100.00
43153;BME280;28756;49.064;9.290;2023-03-30T08:31:19;98817.75;;;10.86;100.00
43153;BME280;28756;49.064;9.290;2023-03-30T08:33:47;98813.13;;;10.91;100.00
43153;BME280;28756;49.064;9.290;2023-03-30T08:36:14;98805.13;;;10.94;100.00
43153;BME280;28756;49.064;9.290;2023-03-30T08:38:40;98809.31;;;10.97;100.00
43153;BME280;28756;49.064;9.290;2023-03-30T08:41:38;98800.41;;;11.01;100.00
43153;BME280;28756;49.064;9.290;2023-03-30T08:46:50;98728.44;;;11.14;100.00
43153;BME280;28756;49.064;9.290;2023-03-30T08:49:19;98725.75;;;11.16;100.00
43153;BME280;28756;49.064;9.290;2023-03-30T08:51:49;98738.50;;;11.20;100.00
43153;BME280;28756;49.064;9.290;2023-03-30T08:54:18;98725.78;;;11.29;100.00
43153;BME280;28756;49.064;9.290;2023-03-30T09:02:40;98713.44;;;11.32;100.00
43153;BME280;28756;49.064;9.290;2023-03-30T09:05:31;98704.78;;;11.32;100.00
43153;BME280;28756;49.064;9.290;2023-03-30T09:08:23;98704.50;;;11.36;100.00
43153;BME280;28756;49.064;9.290;2023-03-30T09:11:04;98707.22;;;11.35;100.00
43153;BME280;28756;49.064;9.290;2023-03-30T09:13:34;98706.91;;;11.40;100.00
43153;BME280;28756;49.064;9.290;2023-03-30T09:16:28;98706.91;;;11.40;100.00
43153;BME280;28756;49.064;9.290;2023-03-30T09:18:59;98722.63;;;11.38;100.00
43153;BME280;28756;49.064;9.290;2023-03-30T09:21:29;98731.81;;;11.44;100.00
43153;BME280;28756;49.064;9.290;2023-03-30T09:23:58;98729.84;;;11.47;100.00
43153;BME280;28756;49.064;9.290;2023-03-30T09:29:26;98733.94;;;11.51;100.00
43153;BME280;28756;49.064;9.290;2023-03-30T09:32:13;98739.78;;;11.55;100.00
43153;BME280;28756;49.064;9.290;2023-03-30T09:34:58;98743.56;;;11.64;100.00
43153;BME280;28756;49.064;9.290;2023-03-30T09:37:25;98741.13;;;11.61;100.00
43153;BME280;28756;49.064;9.290;2023-03-30T09:39:52;98736.72;;;11.76;100.00
43153;BME280;28756;49.064;9.290;2023-03-30T09:44:57;98735.56;;;11.80;100.00
43153;BME280;28756;49.064;9.290;2023-03-30T09:47:31;98749.00;;;11.74;100.00
43153;BME280;28756;49.064;9.290;2023-03-30T09:50:29;98772.38;;;11.75;100.00
43153;BME280;28756;49.064;9.290;2023-03-30T09:53:06;98778.19;;;11.51;100.00
43153;BME280;28756;49.064;9.290;2023-03-30T09:55:38;98771.44;;;11.62;100.00
43153;BME280;28756;49.064;9.290;2023-03-30T09:58:19;98782.66;;;11.77;100.00
43153;BME280;28756;49.064;9.290;2023-03-30T10:00:59;98788.66;;;11.92;100.00
43153;BME280;28756;49.064;9.290;2023-03-30T10:03:25;98779.56;;;11.84;100.00
43153;BME280;28756;49.064;9.290;2023-03-30T10:06:16;98775.59;;;11.79;100.00
43153;BME280;28756;49.064;9.290;2023-03-30T10:08:51;98776.72;;;11.75;100.00
43153;BME280;28756;49.064;9.290;2023-03-30T10:14:02;98751.03;;;11.96;100.00
43153;BME280;28756;49.064;9.290;2023-03-30T10:16:30;98728.81;;;11.90;100.00
43153;BME280;28756;49.064;9.290;2023-03-30T10:19:02;98704.63;;;11.88;100.00
43153;BME280;28756;49.064;9.290;2023-03-30T10:21:38;98701.31;;;11.86;100.00
43153;BME280;28756;49.064;9.290;2023-03-30T10:24:18;98690.25;;;11.82;100.00
43153;BME280;28756;49.064;9.290;2023-03-30T10:26:50;98682.13;;;11.74;100.00
43153;BME280;28756;49.064;9.290;2023-03-30T10:29:17;98685.75;;;11.72;100.00
43153;BME280;28756;49.064;9.290;2023-03-30T10:31:46;98700.66;;;11.69;100.00
43153;BME280;28756;49.064;9.290;2023-03-30T10:34:22;98690.00;;;11.73;100.00
43153;BME280;28756;49.064;9.290;2023-03-30T10:36:52;98689.63;;;11.79;100.00
43153;BME280;28756;49.064;9.290;2023-03-30T10:39:24;98693.69;;;11.83;100.00
43153;BME280;28756;49.064;9.290;2023-03-30T10:41:54;98700.97;;;11.78;100.00
43153;BME280;28756;49.064;9.290;2023-03-30T10:44:51;98701.22;;;11.88;100.00
43153;BME280;28756;49.064;9.290;2023-03-30T11:04:05;98674.03;;;12.56;100.00
43153;BME280;28756;49.064;9.290;2023-03-30T11:06:40;98665.03;;;12.73;100.00
43153;BME280;28756;49.064;9.290;2023-03-30T11:09:19;98676.09;;;12.64;100.00
43153;BME280;28756;49.064;9.290;2023-03-30T11:11:51;98677.63;;;12.79;100.00
43153;BME280;28756;49.064;9.290;2023-03-30T11:14:58;98687.97;;;12.94;100.00
43153;BME280;28756;49.064;9.290;2023-03-30T11:17:42;98682.63;;;13.20;100.00
43153;BME280;28756;49.064;9.290;2023-03-30T11:20:33;98665.91;;;13.71;100.00
43153;BME280;28756;49.064;9.290;2023-03-30T11:23:32;98658.69;;;13.74;100.00
43153;BME280;28756;49.064;9.290;2023-03-30T11:26:07;98657.44;;;13.92;100.00
43153;BME280;28756;49.064;9.290;2023-03-30T11:28:47;98664.94;;;14.08;100.00
43153;BME280;28756;49.064;9.290;2023-03-30T11:34:18;98665.03;;;13.95;100.00
43153;BME280;28756;49.064;9.290;2023-03-30T11:37:35;98660.75;;;13.94;100.00
43153;BME280;28756;49.064;9.290;2023-03-30T11:40:24;98664.06;;;13.84;100.00
43153;BME280;28756;49.064;9.290;2023-03-30T11:42:52;98660.47;;;13.74;100.00
43153;BME280;28756;49.064;9.290;2023-03-30T11:54:37;98670.25;;;13.95;100.00
43153;BME280;28756;49.064;9.290;2023-03-30T12:02:50;98651.78;;;14.32;100.00
43153;BME280;28756;49.064;9.290;2023-03-30T12:05:33;98666.88;;;14.28;100.00
43153;BME280;28756;49.064;9.290;2023-03-30T12:11:11;98647.84;;;14.26;100.00
43153;BME280;28756;49.064;9.290;2023-03-30T12:13:40;98647.84;;;14.26;100.00
43153;BME280;28756;49.064;9.290;2023-03-30T12:16:12;98647.50;;;14.31;100.00
43153;BME280;28756;49.064;9.290;2023-03-30T12:19:14;98651.28;;;14.15;100.00
43153;BME280;28756;49.064;9.290;2023-03-30T12:21:52;98650.78;;;14.10;100.00
43153;BME280;28756;49.064;9.290;2023-03-30T12:24:25;98637.75;;;14.21;100.00
43153;BME280;28756;49.064;9.290;2023-03-30T12:26:53;98637.13;;;14.29;100.00
43153;BME280;28756;49.064;9.290;2023-03-30T12:29:20;98622.88;;;14.56;100.00
43153;BME280;28756;49.064;9.290;2023-03-30T12:34:22;98600.41;;;15.09;100.00
43153;BME280;28756;49.064;9.290;2023-03-30T12:37:18;98604.97;;;15.07;100.00
43153;BME280;28756;49.064;9.290;2023-03-30T12:40:17;98593.41;;;15.09;100.00
43153;BME280;28756;49.064;9.290;2023-03-30T12:43:20;98608.41;;;14.96;100.00
43153;BME280;28756;49.064;9.290;2023-03-30T12:46:28;98598.72;;;14.87;100.00
43153;BME280;28756;49.064;9.290;2023-03-30T13:06:03;98595.88;;;14.44;100.00
43153;BME280;28756;49.064;9.290;2023-03-30T13:08:41;98586.13;;;14.35;100.00
43153;BME280;28756;49.064;9.290;2023-03-30T13:11:19;98600.28;;;14.32;100.00
43153;BME280;28756;49.064;9.290;2023-03-30T13:16:12;98585.31;;;14.23;100.00
43153;BME280;28756;49.064;9.290;2023-03-30T13:21:23;98576.28;;;14.16;100.00
43153;BME280;28756;49.064;9.290;2023-03-30T13:24:02;98577.81;;;13.96;100.00
43153;BME280;28756;49.064;9.290;2023-03-30T13:26:41;98568.13;;;13.51;100.00
43153;BME280;28756;49.064;9.290;2023-03-30T13:29:10;98560.78;;;13.56;100.00
43153;BME280;28756;49.064;9.290;2023-03-30T13:31:51;98566.16;;;13.77;100.00
43153;BME280;28756;49.064;9.290;2023-03-30T13:39:57;98547.53;;;14.27;100.00
43153;BME280;28756;49.064;9.290;2023-03-30T13:43:02;98553.34;;;14.31;100.00
43153;BME280;28756;49.064;9.290;2023-03-30T13:46:00;98564.25;;;14.36;100.00
43153;BME280;28756;49.064;9.290;2023-03-30T13:48:54;98574.50;;;14.05;100.00
43153;BME280;28756;49.064;9.290;2023-03-30T13:51:26;98573.03;;;13.78;100.00
43153;BME280;28756;49.064;9.290;2023-03-30T13:54:03;98572.78;;;13.70;100.00
43153;BME280;28756;49.064;9.290;2023-03-30T13:56:39;98592.56;;;13.50;100.00
43153;BME280;28756;49.064;9.290;2023-03-30T13:59:12;98587.63;;;12.98;100.00
43153;BME280;28756;49.064;9.290;2023-03-30T14:01:40;98596.47;;;12.71;100.00
43153;BME280;28756;49.064;9.290;2023-03-30T14:04:11;98616.66;;;12.56;100.00
43153;BME280;28756;49.064;9.290;2023-03-30T14:06:43;98606.66;;;12.50;100.00
43153;BME280;28756;49.064;9.290;2023-03-30T14:09:29;98602.09;;;12.78;100.00
43153;BME280;28756;49.064;9.290;2023-03-30T14:11:58;98587.88;;;13.06;100.00
43153;BME280;28756;49.064;9.290;2023-03-30T14:16:59;98577.13;;;13.22;100.00
43153;BME280;28756;49.064;9.290;2023-03-30T14:19:37;98586.19;;;13.54;100.00
43153;BME280;28756;49.064;9.290;2023-03-30T14:22:22;98589.28;;;13.59;100.00
43153;BME280;28756;49.064;9.290;2023-03-30T14:25:05;98583.81;;;13.26;100.00
43153;BME280;28756;49.064;9.290;2023-03-30T14:27:38;98586.31;;;13.28;100.00
43153;BME280;28756;49.064;9.290;2023-03-30T14:30:27;98604.78;;;13.14;100.00
43153;BME280;28756;49.064;9.290;2023-03-30T14:33:12;98599.69;;;13.23;100.00
43153;BME280;28756;49.064;9.290;2023-03-30T14:35:58;98617.88;;;13.25;100.00
43153;BME280;28756;49.064;9.290;2023-03-30T14:38:32;98604.66;;;13.15;100.00
43153;BME280;28756;49.064;9.290;2023-03-30T14:44:01;98594.22;;;13.15;100.00
43153;BME280;28756;49.064;9.290;2023-03-30T14:49:02;98594.22;;;13.15;100.00
43153;BME280;28756;49.064;9.290;2023-03-30T14:51:42;98595.72;;;13.06;100.00
43153;BME280;28756;49.064;9.290;2023-03-30T14:54:16;98590.91;;;13.13;100.00
43153;BME280;28756;49.064;9.290;2023-03-30T14:56:44;98585.72;;;13.00;100.00
43153;BME280;28756;49.064;9.290;2023-03-30T14:59:13;98584.69;;;13.14;100.00
43153;BME280;28756;49.064;9.290;2023-03-30T15:01:42;98591.97;;;13.46;100.00
43153;BME280;28756;49.064;9.290;2023-03-30T15:04:16;98579.84;;;13.81;100.00
43153;BME280;28756;49.064;9.290;2023-03-30T15:06:42;98574.72;;;13.79;100.00
43153;BME280;28756;49.064;9.290;2023-03-30T15:09:23;98576.16;;;13.95;100.00
43153;BME280;28756;49.064;9.290;2023-03-30T15:11:59;98570.09;;;13.94;100.00
43153;BME280;28756;49.064;9.290;2023-03-30T15:14:28;98595.75;;;14.00;100.00
43153;BME280;28756;49.064;9.290;2023-03-30T15:16:57;98588.38;;;14.05;100.00
43153;BME280;28756;49.064;9.290;2023-03-30T15:19:29;98600.28;;;14.10;100.00
43153;BME280;28756;49.064;9.290;2023-03-30T15:22:01;98584.84;;;14.06;100.00
43153;BME280;28756;49.064;9.290;2023-03-30T15:24:32;98589.13;;;13.96;100.00